createdAt,value
2022-08-27T00:02:12.219Z,7.81
2022-08-27T00:04:43.633Z,6.49
2022-08-27T00:07:11.687Z,6.29
2022-08-27T00:09:44.240Z,7.37
2022-08-27T00:12:11.975Z,5.77
2022-08-27T00:14:39.705Z,4.35
2022-08-27T00:17:09.032Z,3.72
2022-08-27T00:19:37.597Z,3.26
2022-08-27T00:22:10.729Z,2.74
2022-08-27T00:27:19.143Z,4.20
2022-08-27T00:29:48.623Z,5.75
2022-08-27T00:32:17.092Z,5.85
2022-08-27T00:34:47.024Z,5.61
2022-08-27T00:37:17.209Z,5.36
2022-08-27T00:39:50.030Z,5.59
2022-08-27T00:42:20.445Z,5.29
2022-08-27T00:44:47.552Z,5.50
2022-08-27T00:47:19.356Z,6.95
2022-08-27T00:49:52.990Z,7.01
2022-08-27T00:52:29.967Z,8.05
2022-08-27T00:55:02.152Z,5.85
2022-08-27T00:57:34.220Z,5.51
2022-08-27T01:00:02.438Z,5.00
2022-08-27T01:02:42.617Z,5.83
2022-08-27T01:05:12.698Z,5.26
2022-08-27T01:07:48.247Z,5.25
2022-08-27T01:10:20.393Z,5.76
2022-08-27T01:12:53.339Z,6.09
2022-08-27T01:15:23.870Z,7.06
2022-08-27T01:17:55.781Z,7.04
2022-08-27T01:20:31.913Z,6.13
2022-08-27T01:23:10.520Z,6.33
2022-08-27T01:25:42.965Z,5.58
2022-08-27T01:28:16.541Z,5.64
2022-08-27T01:30:49.405Z,5.21
2022-08-27T01:33:21.435Z,6.51
2022-08-27T01:35:51.294Z,5.83
2022-08-27T01:38:30.756Z,7.13
2022-08-27T01:41:01.212Z,6.35
2022-08-27T01:43:28.630Z,6.12
2022-08-27T01:45:55.740Z,6.26
2022-08-27T01:48:23.510Z,6.32
2022-08-27T01:50:54.126Z,6.43
2022-08-27T01:53:28.156Z,5.52
2022-08-27T01:55:57.408Z,5.00
2022-08-27T01:58:30.072Z,5.35
2022-08-27T02:01:03.891Z,5.49
2022-08-27T02:03:35.820Z,4.82
2022-08-27T02:06:06.504Z,3.80
2022-08-27T02:08:38.127Z,3.77
2022-08-27T02:11:07.444Z,3.62
2022-08-27T02:13:38.538Z,3.87
2022-08-27T02:16:08.823Z,4.98
2022-08-27T02:18:36.217Z,3.94
2022-08-27T02:21:09.173Z,3.66
2022-08-27T02:23:36.217Z,3.35
2022-08-27T02:26:05.868Z,4.13
2022-08-27T02:28:34.116Z,4.61
2022-08-27T02:31:05.936Z,5.26
2022-08-27T02:33:33.623Z,6.43
2022-08-27T02:36:04.457Z,6.52
2022-08-27T02:38:37.358Z,10.93
2022-08-27T02:41:09.319Z,8.48
2022-08-27T02:43:36.255Z,6.95
2022-08-27T02:46:09.990Z,7.27
2022-08-27T02:48:37.891Z,5.30
2022-08-27T02:51:08.007Z,4.55
2022-08-27T02:53:38.305Z,4.21
2022-08-27T02:56:11.413Z,4.74
2022-08-27T02:58:40.963Z,4.18
2022-08-27T03:01:13.780Z,4.73
2022-08-27T03:03:43.365Z,4.24
2022-08-27T03:06:12.142Z,3.90
2022-08-27T03:08:52.927Z,3.53
2022-08-27T03:11:22.586Z,3.67
2022-08-27T03:16:28.599Z,3.05
2022-08-27T03:18:59.043Z,2.97
2022-08-27T03:21:27.387Z,2.51
2022-08-27T03:23:56.704Z,2.21
2022-08-27T03:26:24.531Z,2.41
2022-08-27T03:28:52.605Z,2.79
2022-08-27T03:31:22.393Z,2.45
2022-08-27T03:34:02.258Z,2.25
2022-08-27T03:36:31.580Z,2.06
2022-08-27T03:38:58.804Z,2.74
2022-08-27T03:41:43.458Z,2.60
2022-08-27T03:44:21.309Z,2.02
2022-08-27T03:46:49.901Z,2.99
2022-08-27T03:49:22.861Z,2.82
2022-08-27T03:51:52.816Z,2.31
2022-08-27T03:54:21.655Z,2.44
2022-08-27T03:56:48.859Z,2.71
2022-08-27T03:59:19.858Z,2.62
2022-08-27T04:01:49.044Z,2.74
2022-08-27T04:04:26.237Z,2.15
2022-08-27T04:06:57.863Z,2.92
2022-08-27T04:09:26.750Z,3.37
2022-08-27T04:11:55.328Z,2.77
2022-08-27T04:14:27.135Z,2.93
2022-08-27T04:16:56.632Z,2.43
2022-08-27T04:19:31.527Z,3.58
2022-08-27T04:22:06.331Z,2.80
2022-08-27T04:24:36.644Z,2.23
2022-08-27T04:27:11.671Z,1.88
2022-08-27T04:29:45.184Z,1.61
2022-08-27T04:32:17.198Z,1.45
2022-08-27T04:34:44.490Z,1.18
2022-08-27T04:37:23.131Z,1.43
2022-08-27T04:39:51.072Z,1.17
2022-08-27T04:42:19.385Z,1.41
2022-08-27T04:44:47.067Z,1.50
2022-08-27T04:47:23.164Z,1.97
2022-08-27T04:49:51.495Z,2.02
2022-08-27T04:52:26.814Z,2.28
2022-08-27T04:55:01.121Z,2.42
2022-08-27T04:57:31.707Z,1.87
2022-08-27T04:59:58.794Z,1.87
2022-08-27T05:02:28.641Z,2.49
2022-08-27T05:04:55.454Z,2.68
2022-08-27T05:07:25.274Z,2.96
2022-08-27T05:09:58.379Z,2.58
2022-08-27T05:12:31.109Z,3.09
2022-08-27T05:14:58.975Z,2.38
2022-08-27T05:17:27.460Z,3.08
2022-08-27T05:19:57.910Z,2.34
2022-08-27T05:22:25.010Z,2.37
2022-08-27T05:24:56.089Z,2.13
2022-08-27T05:27:24.474Z,2.43
2022-08-27T05:29:51.499Z,2.78
2022-08-27T05:32:19.301Z,2.35
2022-08-27T05:34:47.428Z,2.47
2022-08-27T05:37:14.415Z,1.78
2022-08-27T05:39:41.645Z,2.07
2022-08-27T05:42:08.534Z,2.09
2022-08-27T05:44:41.060Z,1.73
2022-08-27T05:47:11.111Z,1.52
2022-08-27T05:49:37.930Z,1.57
2022-08-27T05:52:11.008Z,1.43
2022-08-27T05:54:38.618Z,1.33
2022-08-27T05:57:12.472Z,2.81
2022-08-27T05:59:44.893Z,2.10
2022-08-27T06:02:13.054Z,2.12
2022-08-27T06:04:40.366Z,1.77
2022-08-27T06:07:11.738Z,2.33
2022-08-27T06:09:43.835Z,1.87
2022-08-27T06:12:14.699Z,1.71
2022-08-27T06:14:48.095Z,1.73
2022-08-27T06:17:18.947Z,1.74
2022-08-27T06:19:49.347Z,1.37
2022-08-27T06:22:23.222Z,1.80
2022-08-27T06:24:51.369Z,1.38
2022-08-27T06:27:20.084Z,1.33
2022-08-27T06:29:53.109Z,2.49
2022-08-27T06:32:24.092Z,2.85
2022-08-27T06:34:51.469Z,2.63
2022-08-27T06:37:21.309Z,2.33
2022-08-27T06:39:50.333Z,2.92
2022-08-27T06:42:19.798Z,2.09
2022-08-27T06:45:11.425Z,1.74
2022-08-27T06:47:43.051Z,1.66
2022-08-27T06:50:10.444Z,1.32
2022-08-27T06:52:37.398Z,1.91
2022-08-27T06:55:08.813Z,1.86
2022-08-27T06:57:39.000Z,1.75
2022-08-27T07:00:12.433Z,1.35
2022-08-27T07:02:50.276Z,1.16
2022-08-27T07:05:21.397Z,1.05
2022-08-27T07:07:50.010Z,1.11
2022-08-27T07:10:18.480Z,1.51
2022-08-27T07:12:46.994Z,2.02
2022-08-27T07:15:13.872Z,1.45
2022-08-27T07:17:41.923Z,1.15
2022-08-27T07:20:11.036Z,1.59
2022-08-27T07:22:41.237Z,1.22
2022-08-27T07:25:12.345Z,1.48
2022-08-27T07:27:40.268Z,1.57
2022-08-27T07:30:11.975Z,2.58
2022-08-27T07:32:39.717Z,1.89
2022-08-27T07:35:08.175Z,1.83
2022-08-27T07:37:42.471Z,1.71
2022-08-27T07:40:12.609Z,1.37
2022-08-27T07:42:47.110Z,1.48
2022-08-27T07:45:14.072Z,2.31
2022-08-27T07:47:42.456Z,1.78
2022-08-27T07:50:10.714Z,2.80
2022-08-27T07:52:46.626Z,1.97
2022-08-27T07:55:17.684Z,1.47
2022-08-27T07:57:47.023Z,1.62
2022-08-27T08:00:17.021Z,1.50
2022-08-27T08:02:52.019Z,1.54
2022-08-27T08:05:21.890Z,1.87
2022-08-27T08:07:53.340Z,1.60
2022-08-27T08:10:22.999Z,1.55
2022-08-27T08:12:53.150Z,1.29
2022-08-27T08:15:21.783Z,2.87
2022-08-27T08:17:49.651Z,2.76
2022-08-27T08:20:35.652Z,2.36
2022-08-27T08:23:10.653Z,1.66
2022-08-27T08:25:38.880Z,1.66
2022-08-27T08:28:07.105Z,1.24
2022-08-27T08:30:37.392Z,0.90
2022-08-27T08:33:04.630Z,0.94
2022-08-27T08:35:40.862Z,0.97
2022-08-27T08:38:17.841Z,0.75
2022-08-27T08:40:49.617Z,3.50
2022-08-27T08:43:31.941Z,2.78
2022-08-27T08:46:16.216Z,1.85
2022-08-27T08:51:25.622Z,1.79
2022-08-27T08:54:00.046Z,1.59
2022-08-27T08:56:43.276Z,1.27
2022-08-27T08:59:23.827Z,1.33
2022-08-27T09:01:58.576Z,1.13
2022-08-27T09:04:29.994Z,0.88
2022-08-27T09:07:08.748Z,0.98
2022-08-27T09:09:47.171Z,1.49
2022-08-27T09:12:25.771Z,1.92
2022-08-27T09:15:05.130Z,1.17
2022-08-27T09:17:34.097Z,0.92
2022-08-27T09:20:02.294Z,0.78
2022-08-27T09:22:40.980Z,0.60
2022-08-27T09:25:25.546Z,0.57
2022-08-27T09:27:56.982Z,0.74
2022-08-27T09:30:30.714Z,1.15
2022-08-27T09:33:00.442Z,1.43
2022-08-27T09:35:45.632Z,1.35
2022-08-27T09:38:24.460Z,91.12
2022-08-27T09:41:01.893Z,158.52
2022-08-27T09:43:30.531Z,84.72
2022-08-27T09:46:00.066Z,45.80
2022-08-27T09:48:31.729Z,25.30
2022-08-27T09:51:01.830Z,14.13
2022-08-27T09:53:33.855Z,8.33
2022-08-27T09:56:04.322Z,6.40
2022-08-27T09:58:36.798Z,4.75
2022-08-27T10:01:10.074Z,4.24
2022-08-27T10:03:39.384Z,3.08
2022-08-27T10:06:08.274Z,3.02
2022-08-27T10:08:38.485Z,2.64
2022-08-27T10:11:14.723Z,2.20
2022-08-27T10:13:54.338Z,3.01
2022-08-27T10:16:41.794Z,2.49
2022-08-27T10:19:18.925Z,2.46
2022-08-27T10:21:52.420Z,2.09
2022-08-27T10:24:28.208Z,1.76
2022-08-27T10:27:19.799Z,3.15
2022-08-27T10:29:53.366Z,2.52
2022-08-27T10:32:39.475Z,2.92
2022-08-27T10:35:14.098Z,2.30
2022-08-27T10:38:00.385Z,1.98
2022-08-27T10:40:35.596Z,1.73
2022-08-27T10:43:23.607Z,2.01
2022-08-27T10:46:01.038Z,1.60
2022-08-27T10:48:37.009Z,1.61
2022-08-27T10:51:09.881Z,1.79
2022-08-27T10:53:46.696Z,2.11
2022-08-27T10:56:22.073Z,2.53
2022-08-27T10:59:03.085Z,2.79
2022-08-27T11:01:40.316Z,3.33
2022-08-27T11:04:14.695Z,3.00
2022-08-27T11:06:44.753Z,3.62
2022-08-27T11:09:19.222Z,2.58
2022-08-27T11:14:45.575Z,2.38
2022-08-27T11:17:17.295Z,2.26
2022-08-27T11:19:54.355Z,2.55
2022-08-27T11:22:26.799Z,2.36
2022-08-27T11:25:00.789Z,3.78
2022-08-27T11:30:30.296Z,2.53
2022-08-27T11:33:05.748Z,2.86
2022-08-27T11:35:51.197Z,2.30
2022-08-27T11:38:42.332Z,2.27
2022-08-27T11:41:29.355Z,3.48
2022-08-27T11:44:14.014Z,4.63
2022-08-27T11:46:53.650Z,4.05
2022-08-27T11:49:40.777Z,4.11
2022-08-27T11:52:09.466Z,3.81
2022-08-27T11:54:48.171Z,4.08
2022-08-27T11:57:27.060Z,3.52
2022-08-27T11:59:55.834Z,3.88
2022-08-27T12:02:27.070Z,4.40
2022-08-27T12:05:13.030Z,3.32
2022-08-27T12:10:29.622Z,3.15
2022-08-27T12:13:16.377Z,3.87
2022-08-27T12:15:55.926Z,4.43
2022-08-27T12:18:56.315Z,5.06
2022-08-27T12:21:42.789Z,4.81
2022-08-27T12:24:21.596Z,3.90
2022-08-27T12:26:57.688Z,3.43
2022-08-27T12:29:30.766Z,4.25
2022-08-27T12:32:05.318Z,4.71
2022-08-27T12:34:45.456Z,4.06
2022-08-27T12:37:14.702Z,3.69
2022-08-27T12:39:45.428Z,3.08
2022-08-27T12:42:15.040Z,5.16
2022-08-27T12:44:44.180Z,5.31
2022-08-27T12:47:20.272Z,5.14
2022-08-27T12:49:57.561Z,4.33
2022-08-27T12:52:49.358Z,4.01
2022-08-27T12:55:29.109Z,4.39
2022-08-27T12:58:06.385Z,3.79
2022-08-27T13:00:49.672Z,4.28
2022-08-27T13:03:33.163Z,3.73
2022-08-27T13:06:17.053Z,3.21
2022-08-27T13:08:44.140Z,4.45
2022-08-27T13:11:18.179Z,4.49
2022-08-27T13:13:45.686Z,5.13
2022-08-27T13:16:16.307Z,4.60
2022-08-27T13:18:47.542Z,3.79
2022-08-27T13:21:22.964Z,4.99
2022-08-27T13:23:58.489Z,5.23
2022-08-27T13:26:32.864Z,4.87
2022-08-27T13:29:03.705Z,5.16
2022-08-27T13:31:33.261Z,4.82
2022-08-27T13:34:03.571Z,5.07
2022-08-27T13:36:55.610Z,4.71
2022-08-27T13:39:24.953Z,3.93
2022-08-27T13:41:57.057Z,4.59
2022-08-27T13:44:32.822Z,4.33
2022-08-27T13:47:03.611Z,4.37
2022-08-27T13:49:33.534Z,3.79
2022-08-27T13:52:23.814Z,3.76
2022-08-27T13:55:00.410Z,6.02
2022-08-27T13:57:35.082Z,5.24
2022-08-27T14:02:37.356Z,5.24
2022-08-27T14:05:10.356Z,4.63
2022-08-27T14:07:43.766Z,4.09
2022-08-27T14:10:29.635Z,4.24
2022-08-27T14:12:59.392Z,4.44
2022-08-27T14:15:32.088Z,4.31
2022-08-27T14:18:02.372Z,4.45
2022-08-27T14:20:29.724Z,4.82
2022-08-27T14:22:58.043Z,4.98
2022-08-27T14:25:30.496Z,4.41
2022-08-27T14:27:57.341Z,4.27
2022-08-27T14:30:29.968Z,4.83
2022-08-27T14:32:59.311Z,4.76
2022-08-27T14:35:26.958Z,4.77
2022-08-27T14:37:55.607Z,4.51
2022-08-27T14:40:33.056Z,5.43
2022-08-27T14:43:00.018Z,5.19
2022-08-27T14:45:29.447Z,5.15
2022-08-27T14:48:02.186Z,5.17
2022-08-27T14:50:34.963Z,5.08
2022-08-27T14:53:01.810Z,5.04
2022-08-27T14:55:35.396Z,4.81
2022-08-27T14:58:03.533Z,4.70
2022-08-27T15:00:31.635Z,4.82
2022-08-27T15:03:03.599Z,5.92
2022-08-27T15:05:32.211Z,6.60
2022-08-27T15:07:59.434Z,6.13
2022-08-27T15:10:27.809Z,6.39
2022-08-27T15:12:58.329Z,6.79
2022-08-27T15:15:25.702Z,5.96
2022-08-27T15:17:57.873Z,5.93
2022-08-27T15:20:24.689Z,5.32
2022-08-27T15:22:55.425Z,5.21
2022-08-27T15:25:25.871Z,4.74
2022-08-27T15:27:55.263Z,4.12
2022-08-27T15:30:29.186Z,4.04
2022-08-27T15:33:21.225Z,3.67
2022-08-27T15:35:49.599Z,4.37
2022-08-27T15:38:18.674Z,3.82
2022-08-27T15:40:45.808Z,2.94
2022-08-27T15:43:14.189Z,2.70
2022-08-27T15:45:42.645Z,2.77
2022-08-27T15:48:11.309Z,3.28
2022-08-27T15:50:38.692Z,3.02
2022-08-27T15:53:07.958Z,2.83
2022-08-27T15:55:37.619Z,3.28
2022-08-27T15:58:08.446Z,3.36
2022-08-27T16:00:39.409Z,3.32
2022-08-27T16:03:16.053Z,3.27
2022-08-27T16:05:46.923Z,2.75
2022-08-27T16:08:15.041Z,2.07
2022-08-27T16:10:42.266Z,2.23
2022-08-27T16:13:09.863Z,2.81
2022-08-27T16:15:43.252Z,3.14
2022-08-27T16:18:12.848Z,2.61
2022-08-27T16:20:40.721Z,2.59
2022-08-27T16:23:15.189Z,2.46
2022-08-27T16:25:45.506Z,2.83
2022-08-27T16:28:13.269Z,2.49
2022-08-27T16:30:40.835Z,2.49
2022-08-27T16:33:09.566Z,2.51
2022-08-27T16:35:42.085Z,2.92
2022-08-27T16:38:11.414Z,2.47
2022-08-27T16:40:42.517Z,1.79
2022-08-27T16:43:12.652Z,1.63
2022-08-27T16:45:40.066Z,1.72
2022-08-27T16:48:07.043Z,1.43
2022-08-27T16:50:42.962Z,1.70
2022-08-27T16:53:13.732Z,1.96
2022-08-27T16:55:41.840Z,3.93
2022-08-27T16:58:15.172Z,3.28
2022-08-27T17:00:44.132Z,2.38
2022-08-27T17:03:13.877Z,1.75
2022-08-27T17:05:43.068Z,2.38
2022-08-27T17:08:12.762Z,2.18
2022-08-27T17:10:47.130Z,2.40
2022-08-27T17:13:19.937Z,2.41
2022-08-27T17:15:52.587Z,2.33
2022-08-27T17:18:22.787Z,1.72
2022-08-27T17:20:59.562Z,1.72
2022-08-27T17:23:33.949Z,1.83
2022-08-27T17:26:03.032Z,1.52
2022-08-27T17:28:30.153Z,1.49
2022-08-27T17:31:00.896Z,1.37
2022-08-27T17:33:32.173Z,1.66
2022-08-27T17:36:00.642Z,2.01
2022-08-27T17:38:32.023Z,2.04
2022-08-27T17:40:59.311Z,2.31
2022-08-27T17:43:26.308Z,1.95
2022-08-27T17:45:53.211Z,2.46
2022-08-27T17:48:26.058Z,1.66
2022-08-27T17:50:54.037Z,1.51
2022-08-27T17:53:23.703Z,2.01
2022-08-27T17:55:51.979Z,1.70
2022-08-27T17:58:21.495Z,1.67
2022-08-27T18:00:49.569Z,1.30
2022-08-27T18:03:20.674Z,1.21
2022-08-27T18:05:48.608Z,1.46
2022-08-27T18:08:20.565Z,1.31
2022-08-27T18:10:53.823Z,1.21
2022-08-27T18:13:21.865Z,1.60
2022-08-27T18:15:48.992Z,1.38
2022-08-27T18:18:18.750Z,1.08
2022-08-27T18:20:49.845Z,0.90
2022-08-27T18:23:19.396Z,1.99
2022-08-27T18:25:47.016Z,1.64
2022-08-27T18:28:20.086Z,2.41
2022-08-27T18:30:49.602Z,2.04
2022-08-27T18:33:18.886Z,2.30
2022-08-27T18:35:48.190Z,2.46
2022-08-27T18:38:15.818Z,1.75
2022-08-27T18:40:49.160Z,1.51
2022-08-27T18:43:20.763Z,2.42
2022-08-27T18:45:54.126Z,2.75
2022-08-27T18:48:22.502Z,1.98
2022-08-27T18:50:52.026Z,2.03
2022-08-27T18:53:19.993Z,1.70
2022-08-27T18:55:48.562Z,1.49
2022-08-27T18:58:16.281Z,1.77
2022-08-27T19:00:48.496Z,1.47
2022-08-27T19:03:22.990Z,1.34
2022-08-27T19:05:54.993Z,1.25
2022-08-27T19:08:23.774Z,1.67
2022-08-27T19:10:53.014Z,3.31
2022-08-27T19:13:26.624Z,2.67
2022-08-27T19:16:00.123Z,2.39
2022-08-27T19:18:29.504Z,2.89
2022-08-27T19:21:01.677Z,2.45
2022-08-27T19:23:29.495Z,3.44
2022-08-27T19:26:02.363Z,2.93
2022-08-27T19:28:38.153Z,2.67
2022-08-27T19:31:11.535Z,4.04
2022-08-27T19:33:39.041Z,3.28
2022-08-27T19:36:12.581Z,3.12
2022-08-27T19:38:43.338Z,2.64
2022-08-27T19:41:12.471Z,2.63
2022-08-27T19:43:40.996Z,2.52
2022-08-27T19:46:20.663Z,3.31
2022-08-27T19:48:49.064Z,2.53
2022-08-27T19:51:18.885Z,2.85
2022-08-27T19:53:46.363Z,2.93
2022-08-27T19:56:14.393Z,4.04
2022-08-27T19:58:42.302Z,3.35
2022-08-27T20:01:10.964Z,3.89
2022-08-27T20:03:43.764Z,3.80
2022-08-27T20:06:12.367Z,3.67
2022-08-27T20:08:41.752Z,3.17
2022-08-27T20:11:09.284Z,3.78
2022-08-27T20:13:38.501Z,4.26
2022-08-27T20:16:18.944Z,3.51
2022-08-27T20:18:49.295Z,3.16
2022-08-27T20:21:16.422Z,2.93
2022-08-27T20:23:47.872Z,3.46
2022-08-27T20:26:15.753Z,3.71
2022-08-27T20:28:45.647Z,3.41
2022-08-27T20:31:13.918Z,2.65
2022-08-27T20:33:41.520Z,4.12
2022-08-27T20:36:13.535Z,3.93
2022-08-27T20:38:49.599Z,3.48
2022-08-27T20:41:16.967Z,3.43
2022-08-27T20:43:44.734Z,3.19
2022-08-27T20:46:14.460Z,2.94
2022-08-27T20:48:41.922Z,2.54
2022-08-27T20:51:10.983Z,2.80
2022-08-27T20:53:39.014Z,3.30
2022-08-27T20:56:07.403Z,2.85
2022-08-27T20:58:34.741Z,2.48
2022-08-27T21:01:05.069Z,2.51
2022-08-27T21:03:33.111Z,2.20
2022-08-27T21:06:01.175Z,2.38
2022-08-27T21:08:31.880Z,1.89
2022-08-27T21:10:58.929Z,1.97
2022-08-27T21:13:27.841Z,2.04
2022-08-27T21:15:56.497Z,2.99
2022-08-27T21:18:29.295Z,3.03
2022-08-27T21:21:00.068Z,3.11
2022-08-27T21:23:27.768Z,3.10
2022-08-27T21:26:01.565Z,2.94
2022-08-27T21:28:28.593Z,2.83
2022-08-27T21:30:56.686Z,2.85
2022-08-27T21:33:24.090Z,3.67
2022-08-27T21:35:51.178Z,3.08
2022-08-27T21:38:17.972Z,3.22
2022-08-27T21:40:44.919Z,2.71
2022-08-27T21:43:13.516Z,3.10
2022-08-27T21:45:40.636Z,3.43
2022-08-27T21:48:12.736Z,3.05
2022-08-27T21:50:40.012Z,3.50
2022-08-27T21:53:06.983Z,2.67
2022-08-27T21:55:34.383Z,2.40
2022-08-27T21:58:02.722Z,2.15
2022-08-27T22:00:44.442Z,2.46
2022-08-27T22:03:17.384Z,2.17
2022-08-27T22:05:47.647Z,2.19
2022-08-27T22:08:21.153Z,3.44
2022-08-27T22:10:51.908Z,2.96
2022-08-27T22:13:19.899Z,3.75
2022-08-27T22:15:48.724Z,2.64
2022-08-27T22:18:19.801Z,2.31
2022-08-27T22:20:50.730Z,2.22
2022-08-27T22:23:21.286Z,3.27
2022-08-27T22:25:51.070Z,3.22
2022-08-27T22:28:24.399Z,3.09
2022-08-27T22:30:53.042Z,2.77
2022-08-27T22:33:20.450Z,2.31
2022-08-27T22:35:48.519Z,2.12
2022-08-27T22:38:15.406Z,2.46
2022-08-27T22:40:45.244Z,2.35
2022-08-27T22:43:14.640Z,2.59
2022-08-27T22:45:42.934Z,2.16
2022-08-27T22:48:12.365Z,2.37
2022-08-27T22:50:42.240Z,2.14
2022-08-27T22:53:13.364Z,2.55
2022-08-27T22:55:46.758Z,3.47
2022-08-27T22:58:19.164Z,2.63
2022-08-27T23:00:52.809Z,2.46
2022-08-27T23:03:24.575Z,2.81
2022-08-27T23:05:51.964Z,2.48
2022-08-27T23:08:19.292Z,2.80
2022-08-27T23:10:49.228Z,3.06
2022-08-27T23:13:18.394Z,3.00
2022-08-27T23:15:46.447Z,3.54
2022-08-27T23:18:15.331Z,3.23
2022-08-27T23:20:45.520Z,3.25
2022-08-27T23:23:12.870Z,2.79
2022-08-27T23:25:43.844Z,2.63
2022-08-27T23:28:14.259Z,2.33
2022-08-27T23:30:45.597Z,2.81
2022-08-27T23:33:14.234Z,3.49
2022-08-27T23:35:43.759Z,4.84
2022-08-27T23:38:13.379Z,3.50
2022-08-27T23:40:42.618Z,3.02
2022-08-27T23:43:11.241Z,2.80
2022-08-27T23:45:40.788Z,2.65
2022-08-27T23:48:09.818Z,3.69
2022-08-27T23:50:40.246Z,4.29
2022-08-27T23:53:10.617Z,4.18
2022-08-27T23:55:37.846Z,4.43
2022-08-27T23:58:11.884Z,4.34
